Time;durP1;ratioP1;P1;durP2;ratioP2;P2;SDS_P1;SDS_P2;PMS_P1;PMS_P2;Temp;Humidity;BMP_temperature;BMP_pressure;BME280_temperature;BME280_humidity;BME280_pressure;Samples;Min_cycle;Max_cycle;Signal;HPM_P1;HPM_P2
2021/06/05 00:00:27;;;;;;;4.68;3.13;;;;;;;18.06;79.05;99408.97;5047723;28;20048;-86
2021/06/05 00:02:55;;;;;;;6.82;2.70;;;;;;;18.09;79.52;99418.69;5051276;28;20224;-85
2021/06/05 00:05:23;;;;;;;6.35;3.28;;;;;;;18.09;80.46;99425.00;5051311;28;20056;-86
2021/06/05 00:07:50;;;;;;;5.93;2.95;;;;;;;18.04;80.40;99416.63;5050816;28;20072;-87
2021/06/05 00:10:29;;;;;;;5.40;2.65;;;;;;;17.92;80.66;99391.75;5047462;28;20041;-86
2021/06/05 00:12:56;;;;;;;5.00;3.30;;;;;;;17.88;80.77;99387.75;5051159;28;20336;-85
2021/06/05 00:15:28;;;;;;;4.63;2.80;;;;;;;17.93;81.33;99396.22;5051603;28;20045;-84
2021/06/05 00:17:54;;;;;;;3.10;2.60;;;;;;;17.95;81.60;99391.31;5047174;28;20490;-84
2021/06/05 00:20:22;;;;;;;4.30;2.85;;;;;;;17.79;82.22;99370.69;5046165;28;20041;-84
2021/06/05 00:22:49;;;;;;;10.48;3.72;;;;;;;17.73;83.32;99370.78;5051907;28;20485;-84
2021/06/05 00:25:16;;;;;;;8.60;3.80;;;;;;;17.78;83.28;99376.41;5050646;28;20057;-84
2021/06/05 00:27:44;;;;;;;3.97;3.55;;;;;;;17.72;83.37;99361.69;5049551;28;20048;-84
2021/06/05 00:30:11;;;;;;;8.35;3.42;;;;;;;17.57;84.11;99358.44;5049869;28;20310;-84
2021/06/05 00:32:37;;;;;;;4.80;3.83;;;;;;;17.60;84.12;99347.84;5051145;28;20056;-84
2021/06/05 00:35:05;;;;;;;5.95;3.60;;;;;;;17.81;84.31;99357.59;5050118;28;20063;-84
2021/06/05 00:37:32;;;;;;;5.45;4.15;;;;;;;17.88;83.73;99354.75;5051601;28;20041;-84
2021/06/05 00:39:58;;;;;;;9.45;4.18;;;;;;;17.79;83.98;99347.88;5049545;28;20041;-84
2021/06/05 00:42:27;;;;;;;4.85;3.65;;;;;;;17.67;83.55;99337.63;5050744;28;20254;-84
2021/06/05 00:44:54;;;;;;;4.13;3.70;;;;;;;17.62;84.23;99336.63;5047941;28;20044;-84
2021/06/05 00:47:21;;;;;;;4.35;3.70;;;;;;;17.64;84.63;99356.47;5048037;28;20051;-84
2021/06/05 00:49:47;;;;;;;7.47;4.28;;;;;;;17.50;84.50;99336.53;5051313;28;20044;-84
2021/06/05 00:52:20;;;;;;;7.90;3.65;;;;;;;17.35;84.79;99328.63;5049672;28;20134;-84
2021/06/05 00:54:46;;;;;;;6.57;3.60;;;;;;;17.31;85.85;99363.09;5050690;28;20037;-84
2021/06/05 00:57:13;;;;;;;7.50;3.90;;;;;;;17.27;85.45;99350.91;5049935;28;20071;-85
2021/06/05 00:59:39;;;;;;;9.98;4.10;;;;;;;17.43;84.80;99355.84;5051178;28;20125;-84
2021/06/05 01:02:08;;;;;;;7.95;4.28;;;;;;;17.43;84.43;99339.34;5049373;28;20142;-84
2021/06/05 01:04:35;;;;;;;7.70;3.83;;;;;;;17.24;85.80;99354.94;5045937;28;20037;-84
2021/06/05 01:07:07;;;;;;;4.03;3.42;;;;;;;17.15;85.99;99337.88;5048100;28;20055;-84
2021/06/05 01:09:44;;;;;;;4.20;3.80;;;;;;;17.22;85.35;99343.31;5050058;28;20072;-85
2021/06/05 01:12:15;;;;;;;4.63;3.58;;;;;;;16.96;85.86;99331.47;5049688;28;20489;-85
2021/06/05 01:14:44;;;;;;;4.70;4.05;;;;;;;16.84;86.24;99344.22;5044773;28;20492;-85
2021/06/05 01:17:15;;;;;;;9.60;3.85;;;;;;;16.87;86.35;99362.19;5047254;28;20413;-84
2021/06/05 01:19:55;;;;;;;8.02;3.55;;;;;;;16.92;86.21;99363.22;5046184;28;20405;-84
2021/06/05 01:22:36;;;;;;;;;;;;;;;16.92;86.42;99362.34;5052048;28;20127;-84
2021/06/05 01:25:22;;;;;;;6.50;3.88;;;;;;;16.96;85.92;99353.44;5034623;28;19927;-84
2021/06/05 01:27:55;;;;;;;7.00;4.00;;;;;;;16.78;86.35;99343.19;5050809;28;20045;-84
2021/06/05 01:30:26;;;;;;;5.55;3.55;;;;;;;16.72;86.67;99338.56;5040164;28;20147;-85
2021/06/05 01:32:58;;;;;;;9.77;4.20;;;;;;;16.67;87.19;99349.38;5047011;28;20052;-85
2021/06/05 01:35:26;;;;;;;9.43;4.22;;;;;;;16.50;88.48;99337.22;5044611;28;20056;-85
2021/06/05 01:37:54;;;;;;;6.93;4.05;;;;;;;16.63;88.46;99359.13;5046265;28;20118;-85
2021/06/05 01:40:22;;;;;;;6.07;4.35;;;;;;;16.53;88.92;99347.75;5047611;28;20132;-85
2021/06/05 01:42:52;;;;;;;5.80;4.53;;;;;;;16.66;88.36;99372.41;5044094;28;20053;-84
2021/06/05 01:45:23;;;;;;;13.68;5.45;;;;;;;16.64;88.17;99363.56;5050689;28;20049;-85
2021/06/05 01:47:51;;;;;;;8.07;4.20;;;;;;;16.48;88.05;99351.16;5050367;28;20053;-85
2021/06/05 01:50:18;;;;;;;12.55;4.35;;;;;;;16.61;87.62;99362.09;5050221;28;20132;-85
2021/06/05 01:52:45;;;;;;;7.35;3.55;;;;;;;16.61;86.58;99383.22;5049183;28;20593;-84
2021/06/05 01:55:15;;;;;;;8.93;3.55;;;;;;;16.63;86.42;99375.59;5045516;28;20099;-84
2021/06/05 01:57:43;;;;;;;;;;;;;;;16.61;86.75;99388.69;5051280;28;20048;-85
2021/06/05 02:00:18;;;;;;;6.53;3.90;;;;;;;16.54;86.36;99366.75;5050301;28;19921;-84
2021/06/05 02:02:44;;;;;;;6.32;3.78;;;;;;;16.46;86.15;99353.31;5050568;28;20053;-85
2021/06/05 02:05:11;;;;;;;7.63;3.58;;;;;;;16.57;85.95;99371.81;5043854;28;20481;-85
2021/06/05 02:07:38;;;;;;;5.88;3.25;;;;;;;16.58;85.77;99378.97;5050642;28;20049;-84
2021/06/05 02:10:10;;;;;;;6.65;3.40;;;;;;;16.55;85.62;99368.44;5039628;28;20183;-85
2021/06/05 02:12:37;;;;;;;7.88;3.40;;;;;;;16.35;86.08;99363.06;5050613;28;20461;-85
2021/06/05 02:15:08;;;;;;;4.00;2.53;;;;;;;16.50;85.50;99387.47;5042462;28;20057;-85
2021/06/05 02:17:39;;;;;;;7.95;3.10;;;;;;;16.33;85.25;99365.16;5048102;28;20447;-85
2021/06/05 02:20:12;;;;;;;3.08;2.33;;;;;;;16.22;84.38;99361.22;5042735;28;20432;-85
2021/06/05 02:22:41;;;;;;;5.82;1.92;;;;;;;16.33;83.70;99362.44;5047069;28;20500;-85
2021/06/05 02:25:10;;;;;;;7.47;2.90;;;;;;;16.14;84.32;99353.22;5050584;28;20045;-85
2021/06/05 02:27:37;;;;;;;4.03;2.72;;;;;;;16.32;84.59;99374.47;5042278;28;20500;-86
2021/06/05 02:30:07;;;;;;;11.82;2.85;;;;;;;16.16;84.65;99362.06;5050336;28;20049;-85
2021/06/05 02:32:33;;;;;;;3.95;2.55;;;;;;;16.26;85.00;99370.69;5047159;28;20068;-85
2021/06/05 02:35:02;;;;;;;3.80;2.80;;;;;;;16.27;84.43;99366.91;5050324;28;20053;-85
2021/06/05 02:37:30;;;;;;;2.55;2.35;;;;;;;16.13;84.33;99348.78;5048475;28;20280;-85
2021/06/05 02:39:58;;;;;;;2.97;2.35;;;;;;;15.91;85.08;99351.84;5050704;28;20049;-85
2021/06/05 02:42:27;;;;;;;6.32;2.17;;;;;;;16.02;84.82;99344.00;5049350;28;20483;-85
2021/06/05 02:44:56;;;;;;;3.55;2.33;;;;;;;16.06;85.79;99347.97;5050613;28;20057;-85
2021/06/05 02:47:25;;;;;;;2.35;2.15;;;;;;;16.09;85.24;99331.09;5051211;28;20045;-85
2021/06/05 02:49:52;;;;;;;3.83;2.22;;;;;;;16.02;85.26;99358.53;5053763;28;20037;-86
2021/06/05 02:52:32;;;;;;;4.30;2.60;;;;;;;16.09;85.60;99366.72;5051522;28;20056;-85
2021/06/05 02:55:01;;;;;;;3.53;2.60;;;;;;;16.12;84.95;99349.84;5051683;28;20118;-85
2021/06/05 02:57:29;;;;;;;5.68;3.08;;;;;;;16.17;84.73;99350.06;5054254;28;20059;-86
2021/06/05 02:59:55;;;;;;;4.22;2.90;;;;;;;15.96;85.85;99351.19;5050886;28;20136;-85
2021/06/05 03:02:22;;;;;;;5.88;3.50;;;;;;;16.01;86.06;99370.56;5054487;28;20051;-86
2021/06/05 03:04:48;;;;;;;8.18;3.40;;;;;;;15.92;86.41;99374.59;5054159;28;20107;-86
2021/06/05 03:07:15;;;;;;;5.20;3.22;;;;;;;15.77;86.70;99352.03;5053756;28;20200;-86
2021/06/05 03:09:44;;;;;;;3.65;2.90;;;;;;;15.69;86.74;99353.94;5052403;28;20049;-86
2021/06/05 03:12:13;;;;;;;5.80;3.10;;;;;;;15.65;86.97;99343.63;5053890;28;20041;-86
2021/06/05 03:14:40;;;;;;;5.07;3.00;;;;;;;15.76;87.52;99353.94;5052502;28;20405;-85
2021/06/05 03:17:07;;;;;;;6.55;3.58;;;;;;;15.82;86.54;99353.13;5053282;28;20049;-86
2021/06/05 03:19:34;;;;;;;4.55;2.78;;;;;;;15.75;86.67;99352.25;5048339;28;20051;-85
2021/06/05 03:22:02;;;;;;;5.60;3.08;;;;;;;15.81;86.28;99348.69;5054926;28;20111;-86
2021/06/05 03:24:28;;;;;;;4.97;3.10;;;;;;;15.97;85.61;99358.34;5053551;28;20496;-86
2021/06/05 03:27:00;;;;;;;5.13;3.55;;;;;;;15.81;85.87;99353.34;5053679;28;20394;-86
2021/06/05 03:29:27;;;;;;;6.22;3.15;;;;;;;15.73;86.58;99347.00;5053696;28;20101;-86
2021/06/05 03:31:54;;;;;;;3.78;3.00;;;;;;;15.70;86.97;99344.69;5052360;28;20076;-86
2021/06/05 03:34:20;;;;;;;3.35;2.90;;;;;;;15.80;86.22;99341.50;5053140;28;20049;-86
2021/06/05 03:36:48;;;;;;;4.32;2.88;;;;;;;15.90;85.41;99347.41;5053374;28;20049;-86
2021/06/05 03:39:14;;;;;;;4.47;2.80;;;;;;;15.84;85.40;99325.50;5053394;28;20053;-86
2021/06/05 03:41:43;;;;;;;5.20;3.25;;;;;;;15.92;85.03;99331.56;5053498;28;20140;-86
2021/06/05 03:44:11;;;;;;;4.10;3.30;;;;;;;15.95;85.11;99322.06;5048384;28;20136;-86
2021/06/05 03:46:38;;;;;;;3.63;2.83;;;;;;;15.99;85.05;99337.03;5052335;28;20053;-86
2021/06/05 03:49:06;;;;;;;5.15;3.10;;;;;;;15.83;85.92;99324.63;5048682;28;20048;-86
2021/06/05 03:51:33;;;;;;;8.30;2.53;;;;;;;15.92;85.33;99323.34;5053386;28;20048;-86
2021/06/05 03:53:59;;;;;;;4.78;2.90;;;;;;;16.03;85.40;99345.66;5050415;28;20061;-86
2021/06/05 03:56:26;;;;;;;3.80;2.47;;;;;;;16.22;84.69;99349.41;5052803;28;20432;-86
2021/06/05 03:58:53;;;;;;;4.10;2.60;;;;;;;16.23;84.23;99348.34;5053188;28;20371;-86
2021/06/05 04:01:23;;;;;;;3.22;2.40;;;;;;;16.19;85.32;99334.22;5052993;28;20052;-86
2021/06/05 04:03:50;;;;;;;6.05;2.55;;;;;;;16.31;85.42;99358.22;5052691;28;20052;-86
2021/06/05 04:06:19;;;;;;;3.85;2.70;;;;;;;16.41;85.81;99361.31;5050754;28;20096;-86
2021/06/05 04:08:46;;;;;;;3.42;2.80;;;;;;;16.41;84.34;99333.88;5052390;28;20053;-86
2021/06/05 04:11:13;;;;;;;3.35;2.83;;;;;;;16.60;83.88;99352.16;5047986;28;20053;-86
2021/06/05 04:13:39;;;;;;;6.15;2.97;;;;;;;16.53;84.05;99337.66;5052741;28;20073;-86
2021/06/05 04:16:06;;;;;;;5.28;2.95;;;;;;;16.49;84.37;99333.66;5047588;28;20721;-86
2021/06/05 04:18:36;;;;;;;6.00;3.60;;;;;;;16.64;84.24;99347.09;5045915;28;20591;-86
2021/06/05 04:21:04;;;;;;;4.35;3.13;;;;;;;16.55;84.59;99331.94;5051799;28;20076;-86
2021/06/05 04:23:31;;;;;;;5.07;3.78;;;;;;;16.69;84.75;99335.44;5052243;28;20497;-86
2021/06/05 04:25:57;;;;;;;7.35;4.30;;;;;;;16.74;84.04;99339.22;5053075;28;20047;-86
2021/06/05 04:28:26;;;;;;;3.70;3.20;;;;;;;16.74;83.71;99316.38;5050127;28;20413;-87
2021/06/05 04:30:53;;;;;;;3.88;2.88;;;;;;;16.89;83.67;99352.66;5052814;28;20508;-86
2021/06/05 04:33:23;;;;;;;5.22;3.10;;;;;;;16.81;84.48;99334.50;5048150;28;20048;-87
2021/06/05 04:35:51;;;;;;;6.00;3.13;;;;;;;17.09;82.95;99354.44;5044606;28;20133;-87
2021/06/05 04:38:19;;;;;;;4.30;2.88;;;;;;;16.99;82.84;99335.69;5051814;28;20050;-87
2021/06/05 04:40:45;;;;;;;5.00;3.25;;;;;;;17.06;83.31;99357.63;5052772;28;20059;-87
2021/06/05 04:43:14;;;;;;;5.13;2.67;;;;;;;16.88;83.45;99339.16;5049456;28;20045;-87
2021/06/05 04:45:41;;;;;;;5.85;2.40;;;;;;;17.04;82.83;99363.34;5049106;28;20512;-87
2021/06/05 04:48:08;;;;;;;4.70;2.40;;;;;;;16.84;82.18;99330.47;5044500;28;20069;-87
2021/06/05 04:50:36;;;;;;;2.35;2.15;;;;;;;17.03;83.13;99360.81;5046430;28;20060;-87
2021/06/05 04:53:05;;;;;;;2.78;2.00;;;;;;;16.90;83.05;99329.63;5043755;28;20049;-87
2021/06/05 04:55:32;;;;;;;4.40;2.25;;;;;;;17.06;81.44;99338.41;5049793;28;20052;-87
2021/06/05 04:57:59;;;;;;;5.65;2.60;;;;;;;17.15;81.38;99351.63;5051902;28;20060;-87
2021/06/05 05:00:28;;;;;;;7.28;2.45;;;;;;;17.25;81.33;99344.78;5049505;28;20481;-87
2021/06/05 05:02:55;;;;;;;6.57;3.45;;;;;;;17.24;81.70;99323.88;5050779;28;20072;-87
2021/06/05 05:05:22;;;;;;;2.70;1.77;;;;;;;17.25;81.55;99325.53;5050236;28;20189;-88
2021/06/05 05:07:51;;;;;;;2.88;2.00;;;;;;;17.32;81.77;99323.59;5041933;28;20079;-87
2021/06/05 05:10:21;;;;;;;9.55;2.50;;;;;;;17.47;81.22;99335.06;5050926;28;20491;-88
2021/06/05 05:12:50;;;;;;;5.47;2.60;;;;;;;17.59;80.89;99335.16;5051206;28;20239;-88
2021/06/05 05:15:17;;;;;;;3.50;2.20;;;;;;;17.43;81.47;99327.50;5050905;28;20068;-88
2021/06/05 05:17:44;;;;;;;4.10;2.22;;;;;;;17.54;81.49;99348.75;5051583;28;20132;-87
2021/06/05 05:20:15;;;;;;;3.22;2.13;;;;;;;17.47;81.12;99326.00;5051663;28;20072;-88
2021/06/05 05:22:41;;;;;;;3.75;2.00;;;;;;;17.59;80.03;99337.91;5051247;28;20044;-88
2021/06/05 05:25:10;;;;;;;2.67;1.83;;;;;;;17.58;80.39;99329.91;5043099;28;20049;-88
2021/06/05 05:27:38;;;;;;;4.32;2.00;;;;;;;17.71;81.66;99353.69;5051554;28;20048;-88
2021/06/05 05:30:06;;;;;;;3.60;2.25;;;;;;;17.76;80.74;99353.81;5051697;28;20136;-88
2021/06/05 05:32:35;;;;;;;2.67;2.25;;;;;;;17.73;80.51;99348.78;5051549;28;20481;-88
2021/06/05 05:35:02;;;;;;;5.15;2.60;;;;;;;17.81;80.73;99351.22;5045692;28;20394;-88
2021/06/05 05:37:29;;;;;;;8.32;2.05;;;;;;;17.68;80.44;99342.03;5051157;28;20041;-88
2021/06/05 05:39:58;;;;;;;2.40;1.80;;;;;;;17.92;80.22;99372.50;5051231;28;20056;-88
2021/06/05 05:42:25;;;;;;;3.70;2.50;;;;;;;18.01;80.03;99340.88;5045463;28;20056;-88
2021/06/05 05:44:53;;;;;;;2.60;2.40;;;;;;;18.44;78.17;99346.50;5051341;28;20048;-89
2021/06/05 05:47:20;;;;;;;3.97;2.67;;;;;;;18.60;77.71;99345.84;5047524;28;20508;-89
2021/06/05 05:49:46;;;;;;;3.55;2.35;;;;;;;18.74;77.03;99346.50;5050758;28;20616;-89
2021/06/05 05:52:14;;;;;;;3.90;2.33;;;;;;;18.67;76.44;99354.88;5044424;28;20053;-89
2021/06/05 05:54:41;;;;;;;3.30;2.40;;;;;;;18.51;77.13;99344.50;5046715;28;20076;-89
2021/06/05 05:57:08;;;;;;;3.65;2.20;;;;;;;18.65;76.75;99361.69;5043657;28;20144;-88
2021/06/05 05:59:34;;;;;;;2.78;2.00;;;;;;;18.86;75.86;99374.97;5051247;28;20053;-89
2021/06/05 06:02:04;;;;;;;4.65;2.08;;;;;;;18.88;75.76;99364.56;5052306;28;20066;-89
2021/06/05 06:04:31;;;;;;;2.78;1.90;;;;;;;19.20;74.87;99366.19;5051834;28;20041;-89
2021/06/05 06:06:57;;;;;;;3.95;2.05;;;;;;;19.96;72.01;99358.09;5051929;28;20069;-89
2021/06/05 06:09:26;;;;;;;3.25;1.98;;;;;;;20.58;69.72;99367.66;5053129;28;20489;-89
2021/06/05 06:11:53;;;;;;;3.03;2.10;;;;;;;21.39;66.95;99365.59;5052464;28;20068;-89
2021/06/05 06:14:21;;;;;;;2.25;1.65;;;;;;;21.59;64.15;99371.72;5047860;28;20076;-89
2021/06/05 06:21:09;;;;;;;3.88;1.50;;;;;;;21.79;62.57;99369.28;5011173;28;20050;-89
2021/06/05 06:23:40;;;;;;;2.97;1.70;;;;;;;22.10;61.17;99378.03;4952327;29;20142;-90
2021/06/05 06:26:15;;;;;;;1.98;1.33;;;;;;;22.19;60.67;99390.34;4997965;28;20062;-90
2021/06/05 06:28:49;;;;;;;2.33;1.40;;;;;;;22.27;61.81;99389.06;5047276;28;20189;-90
2021/06/05 06:31:21;;;;;;;3.50;1.63;;;;;;;22.33;60.45;99393.59;5037019;28;20571;-90
2021/06/05 06:33:48;;;;;;;1.75;1.23;;;;;;;22.20;60.20;99383.69;5050701;28;20071;-90
2021/06/05 06:36:18;;;;;;;2.28;1.40;;;;;;;22.03;61.54;99378.22;5050087;28;20398;-89
2021/06/05 06:38:49;;;;;;;4.72;1.45;;;;;;;22.54;59.21;99382.78;5054467;28;20045;-90
2021/06/05 06:41:18;;;;;;;2.92;1.40;;;;;;;22.76;58.69;99396.59;5059779;28;20063;-90
2021/06/05 06:43:45;;;;;;;2.55;1.40;;;;;;;22.84;60.49;99396.16;5076758;28;20045;-90
2021/06/05 06:46:17;;;;;;;4.03;2.35;;;;;;;22.81;58.78;99399.44;5073053;28;20064;-90
2021/06/05 06:48:44;;;;;;;1.90;1.30;;;;;;;22.55;60.54;99404.69;5073161;28;20072;-90
2021/06/05 06:51:11;;;;;;;4.47;1.30;;;;;;;23.08;59.92;99407.78;5071596;28;20049;-89
2021/06/05 06:53:38;;;;;;;2.25;1.00;;;;;;;23.22;59.60;99397.13;5065215;28;20068;-89
2021/06/05 06:56:07;;;;;;;2.63;1.33;;;;;;;23.65;58.06;99392.50;5054077;28;20484;-90
2021/06/05 06:58:34;;;;;;;1.20;1.00;;;;;;;23.88;56.53;99401.59;5047806;28;20048;-89
2021/06/05 07:01:01;;;;;;;1.80;1.20;;;;;;;23.62;54.87;99406.91;5050956;28;20488;-88
2021/06/05 07:03:28;;;;;;;2.63;1.55;;;;;;;23.62;55.41;99398.59;5058375;28;20060;-88
2021/06/05 07:05:54;;;;;;;4.10;1.67;;;;;;;23.57;55.60;99404.09;5052032;28;20052;-87
2021/06/05 07:08:24;;;;;;;1.92;1.10;;;;;;;23.20;56.12;99415.97;5052841;28;20049;-88
2021/06/05 07:10:57;;;;;;;3.30;1.20;;;;;;;23.78;59.12;99418.13;5052571;28;20092;-87
2021/06/05 07:13:26;;;;;;;2.83;1.30;;;;;;;24.06;55.18;99405.88;5053083;28;20060;-87
2021/06/05 07:15:54;;;;;;;4.18;1.55;;;;;;;23.95;55.19;99395.78;5051966;28;20064;-87
2021/06/05 07:18:22;;;;;;;2.30;1.25;;;;;;;23.76;53.85;99412.84;5053228;28;20056;-87
2021/06/05 07:20:50;;;;;;;1.30;0.95;;;;;;;24.53;52.39;99404.16;5047444;28;20052;-87
2021/06/05 07:23:18;;;;;;;1.63;1.13;;;;;;;24.83;52.08;99406.25;5048903;28;20061;-87
2021/06/05 07:25:44;;;;;;;3.33;1.38;;;;;;;24.65;51.91;99402.03;5050775;28;20579;-87
2021/06/05 07:28:15;;;;;;;4.00;1.25;;;;;;;24.93;50.68;99413.81;5053094;28;20045;-87
2021/06/05 07:30:44;;;;;;;4.28;1.10;;;;;;;24.60;49.50;99421.47;5052628;28;20056;-87
2021/06/05 07:33:11;;;;;;;1.23;1.00;;;;;;;23.94;51.94;99396.91;5052501;28;20540;-87
2021/06/05 07:35:37;;;;;;;3.92;1.00;;;;;;;23.72;52.98;99411.69;5052778;28;20402;-87
2021/06/05 07:38:04;;;;;;;3.55;1.30;;;;;;;24.05;53.86;99425.56;5046335;28;20068;-86
2021/06/05 07:40:31;;;;;;;2.00;1.20;;;;;;;24.47;52.95;99408.84;5049230;28;20071;-86
2021/06/05 07:42:57;;;;;;;4.05;1.30;;;;;;;24.44;53.15;99408.56;5050726;28;20053;-88
2021/06/05 07:45:23;;;;;;;3.67;1.20;;;;;;;23.76;53.87;99412.84;5047000;28;20053;-85
2021/06/05 07:47:52;;;;;;;3.33;0.90;;;;;;;23.78;53.94;99418.13;5052070;28;20045;-86
2021/06/05 07:50:21;;;;;;;3.13;1.00;;;;;;;22.91;54.71;99423.66;5051899;28;20052;-91
2021/06/05 07:52:48;;;;;;;1.25;1.13;;;;;;;22.58;56.27;99419.94;5052329;28;20405;-86
2021/06/05 07:55:15;;;;;;;3.60;1.00;;;;;;;22.53;56.77;99430.97;5046821;28;20484;-85
2021/06/05 07:57:41;;;;;;;4.50;1.20;;;;;;;22.67;58.02;99425.88;5047310;28;20512;-85
2021/06/05 08:00:11;;;;;;;2.33;1.10;;;;;;;22.85;57.91;99425.53;5047545;28;20061;-86
2021/06/05 08:02:37;;;;;;;2.10;1.35;;;;;;;23.27;55.51;99424.91;5052425;28;20525;-84
2021/06/05 08:05:07;;;;;;;3.33;1.55;;;;;;;23.53;56.47;99430.72;5051581;28;20072;-84
2021/06/05 08:07:33;;;;;;;;;;;;;;;23.64;57.51;99429.69;5048989;28;20052;-84
2021/06/05 08:10:00;;;;;;;2.50;1.38;;;;;;;23.84;55.68;99419.84;5043175;28;19921;-86
2021/06/05 08:12:26;;;;;;;3.80;1.25;;;;;;;23.46;55.07;99405.13;5051316;28;20060;-86
2021/06/05 08:14:54;;;;;;;3.22;1.80;;;;;;;23.00;57.16;99418.50;5050712;28;20044;-85
2021/06/05 08:17:20;;;;;;;2.38;1.23;;;;;;;23.24;57.13;99421.81;5047593;28;20053;-85
2021/06/05 08:19:47;;;;;;;3.10;1.40;;;;;;;23.30;56.83;99418.81;5051628;28;20041;-84
2021/06/05 08:22:15;;;;;;;1.20;1.10;;;;;;;23.25;58.13;99426.28;5050122;28;20055;-85
2021/06/05 08:24:41;;;;;;;3.83;1.55;;;;;;;23.10;57.22;99426.97;5040616;28;20068;-84
2021/06/05 08:27:08;;;;;;;1.55;1.33;;;;;;;23.10;58.44;99422.25;5046260;28;20056;-84
2021/06/05 08:29:35;;;;;;;4.93;2.50;;;;;;;22.89;58.07;99418.38;5046091;28;20045;-84
2021/06/05 08:32:01;;;;;;;2.65;1.33;;;;;;;22.57;58.69;99432.13;5051867;28;20052;-84
2021/06/05 08:34:27;;;;;;;2.38;1.33;;;;;;;22.47;59.30;99413.44;5047908;28;20068;-86
2021/06/05 08:36:54;;;;;;;3.17;1.40;;;;;;;22.49;58.77;99405.69;5045521;28;20049;-85
2021/06/05 08:39:22;;;;;;;1.38;1.02;;;;;;;22.67;59.05;99426.69;5051685;28;20056;-84
2021/06/05 08:41:51;;;;;;;1.90;1.23;;;;;;;22.86;58.91;99420.84;5050109;28;20053;-83
2021/06/05 08:44:25;;;;;;;2.23;1.20;;;;;;;22.28;59.03;99427.56;5045336;28;20482;-84
2021/06/05 08:46:56;;;;;;;4.50;1.50;;;;;;;22.56;57.77;99428.50;5049622;28;20052;-84
2021/06/05 08:49:24;;;;;;;4.30;1.63;;;;;;;22.76;59.07;99443.72;5050562;28;20052;-83
2021/06/05 08:51:58;;;;;;;2.05;1.27;;;;;;;22.31;58.59;99442.00;5051216;28;20053;-83
2021/06/05 08:54:48;;;;;;;2.95;1.40;;;;;;;22.09;59.61;99428.97;5043286;28;20056;-84
2021/06/05 08:57:29;;;;;;;2.70;1.42;;;;;;;22.08;61.31;99425.34;5043001;28;20071;-83
2021/06/05 09:00:01;;;;;;;3.97;1.23;;;;;;;22.22;60.12;99430.50;5046890;28;20053;-83
2021/06/05 09:02:48;;;;;;;14.15;1.80;;;;;;;22.47;59.85;99434.78;5051061;28;20260;-83
2021/06/05 09:05:19;;;;;;;2.92;1.27;;;;;;;22.39;60.98;99442.44;5052133;28;20068;-84
2021/06/05 09:07:45;;;;;;;2.88;1.45;;;;;;;22.29;60.67;99436.72;5046815;28;20041;-84
2021/06/05 09:10:17;;;;;;;3.88;1.40;;;;;;;22.60;60.78;99437.16;5040628;28;20053;-83
2021/06/05 09:12:47;;;;;;;3.30;1.25;;;;;;;22.30;61.22;99430.09;5044953;28;20056;-84
2021/06/05 09:15:19;;;;;;;;;;;;;;;22.51;60.69;99436.78;5044505;28;20048;-87
2021/06/05 09:17:48;;;;;;;2.03;1.40;;;;;;;22.67;60.17;99423.94;5050661;28;20370;-84
2021/06/05 09:20:25;;;;;;;1.50;1.08;;;;;;;22.67;58.96;99429.47;5049663;28;20045;-84
2021/06/05 09:22:52;;;;;;;2.63;1.20;;;;;;;22.63;59.68;99434.72;5050839;28;20119;-84
2021/06/05 09:25:40;;;;;;;4.65;1.15;;;;;;;22.82;60.30;99439.09;5049976;28;20049;-84
2021/06/05 09:28:20;;;;;;;1.25;1.10;;;;;;;22.58;59.09;99428.25;5048230;28;20060;-85
2021/06/05 09:30:47;;;;;;;3.42;1.17;;;;;;;22.79;58.28;99430.19;5043193;28;20095;-85
2021/06/05 09:33:27;;;;;;;1.40;1.00;;;;;;;22.78;58.09;99416.59;5050242;28;20053;-86
2021/06/05 09:36:17;;;;;;;4.63;1.25;;;;;;;22.98;57.91;99436.22;5041506;28;20052;-85
2021/06/05 09:38:46;;;;;;;;;;;;;;;22.75;58.20;99433.75;5051471;28;20444;-85
2021/06/05 09:41:20;;;;;;;1.23;1.13;;;;;;;22.65;60.16;99428.91;5035381;28;20343;-85
2021/06/05 09:43:48;;;;;;;1.00;0.90;;;;;;;22.47;60.92;99415.38;5035505;28;20407;-85
2021/06/05 09:46:24;;;;;;;0.80;0.80;;;;;;;22.61;60.07;99427.75;5052751;28;20733;-85
2021/06/05 09:48:53;;;;;;;1.05;0.88;;;;;;;22.72;58.77;99448.13;5050709;28;20401;-86
2021/06/05 09:51:34;;;;;;;1.17;0.68;;;;;;;22.74;58.42;99432.06;5051009;28;20048;-85
2021/06/05 09:54:05;;;;;;;1.17;0.80;;;;;;;22.56;57.27;99428.50;5056315;28;20040;-85
2021/06/05 09:56:36;;;;;;;0.80;0.75;;;;;;;22.48;58.52;99423.44;5041834;28;20050;-85
2021/06/05 09:59:15;;;;;;;0.60;0.60;;;;;;;22.49;57.76;99424.25;5054439;28;20056;-84
2021/06/05 10:02:05;;;;;;;3.72;0.75;;;;;;;22.62;57.94;99438.56;5056307;28;20160;-85
2021/06/05 10:04:36;;;;;;;0.60;0.60;;;;;;;22.53;57.25;99437.34;5055925;28;20493;-84
2021/06/05 10:07:03;;;;;;;1.92;1.00;;;;;;;22.75;59.73;99437.34;5056378;28;20052;-84
2021/06/05 10:09:49;;;;;;;4.97;1.00;;;;;;;23.10;58.57;99438.88;5056482;28;20049;-85
2021/06/05 10:12:23;;;;;;;2.97;0.85;;;;;;;23.21;58.17;99439.81;5042068;28;20048;-85
2021/06/05 10:15:00;;;;;;;3.10;0.93;;;;;;;23.03;57.44;99426.28;5042656;28;20139;-85
2021/06/05 10:17:36;;;;;;;6.40;2.55;;;;;;;23.04;56.91;99427.97;5037077;28;20049;-85
2021/06/05 10:20:19;;;;;;;2.15;1.27;;;;;;;22.93;57.03;99443.66;5054684;28;20065;-85
2021/06/05 10:22:46;;;;;;;1.83;1.23;;;;;;;22.88;57.11;99447.19;5049266;28;20048;-85
2021/06/05 10:25:19;;;;;;;3.40;1.35;;;;;;;22.71;59.02;99446.44;5055242;28;20048;-85
2021/06/05 10:27:48;;;;;;;2.75;2.08;;;;;;;22.72;57.93;99446.19;5048343;28;20052;-83
2021/06/05 10:30:31;;;;;;;1.50;0.95;;;;;;;22.80;57.20;99434.63;5054918;28;20059;-85
2021/06/05 10:33:00;;;;;;;4.78;1.27;;;;;;;22.80;56.51;99433.81;5039820;28;20114;-84
2021/06/05 10:35:39;;;;;;;1.63;0.88;;;;;;;22.80;57.20;99437.41;5048997;28;20044;-84
2021/06/05 10:38:26;;;;;;;1.10;0.90;;;;;;;23.09;57.52;99425.25;5042066;28;20045;-85
2021/06/05 10:41:12;;;;;;;3.13;0.80;;;;;;;23.16;56.79;99439.78;5048977;28;20049;-84
2021/06/05 10:43:49;;;;;;;2.08;1.10;;;;;;;23.21;57.97;99437.03;5051986;28;20048;-85
2021/06/05 10:46:35;;;;;;;2.85;1.00;;;;;;;23.46;56.21;99430.09;5052613;28;20095;-85
2021/06/05 10:49:31;;;;;;;0.93;0.80;;;;;;;23.50;56.70;99431.22;5055472;28;20052;-86
2021/06/05 10:52:08;;;;;;;2.72;1.10;;;;;;;23.44;56.08;99421.16;5056424;28;20049;-85
2021/06/05 10:54:39;;;;;;;1.63;1.20;;;;;;;23.64;54.51;99434.41;5055025;28;20053;-85
2021/06/05 10:57:26;;;;;;;3.10;0.90;;;;;;;23.74;55.59;99406.75;5056465;28;20416;-85
2021/06/05 10:59:57;;;;;;;1.05;0.70;;;;;;;24.06;55.17;99419.75;5052247;28;20045;-85
2021/06/05 11:02:43;;;;;;;1.85;1.00;;;;;;;24.22;54.44;99431.78;5051003;28;20048;-84
2021/06/05 11:05:42;;;;;;;2.42;1.00;;;;;;;24.03;53.77;99417.53;5042611;28;20473;-85
2021/06/05 11:08:45;;;;;;;2.30;1.00;;;;;;;24.25;52.40;99422.91;5036065;28;20061;-85
2021/06/05 11:11:34;;;;;;;1.90;0.90;;;;;;;24.58;51.66;99406.13;5048887;28;20083;-84
2021/06/05 11:14:01;;;;;;;3.03;0.80;;;;;;;24.79;51.01;99419.03;5054566;28;20168;-85
2021/06/05 11:17:10;;;;;;;1.10;1.00;;;;;;;24.72;51.41;99422.06;5047361;28;20053;-85
2021/06/05 11:19:41;;;;;;;1.43;1.10;;;;;;;23.92;51.51;99397.19;5037135;28;20056;-86
2021/06/05 11:22:10;;;;;;;1.75;1.23;;;;;;;24.38;52.24;99405.75;5041856;28;20655;-85
2021/06/05 11:24:38;;;;;;;2.08;0.93;;;;;;;24.34;51.02;99403.78;5041443;28;20092;-85
2021/06/05 11:27:09;;;;;;;4.85;1.02;;;;;;;24.25;52.59;99395.13;5052093;28;20115;-84
2021/06/05 11:30:04;;;;;;;2.88;0.70;;;;;;;24.26;52.58;99382.94;5055016;28;20481;-84
2021/06/05 11:32:47;;;;;;;1.90;1.25;;;;;;;24.33;51.09;99391.84;5004500;28;20497;-84
2021/06/05 11:35:32;;;;;;;0.93;0.80;;;;;;;24.37;51.42;99398.56;5054379;28;20564;-84
2021/06/05 11:37:59;;;;;;;1.90;0.93;;;;;;;24.09;51.97;99402.56;5042855;28;20053;-85
2021/06/05 11:40:59;;;;;;;2.10;1.08;;;;;;;24.05;52.93;99401.41;5046460;28;20056;-84
2021/06/05 11:43:49;;;;;;;4.70;1.08;;;;;;;23.43;54.03;99384.28;5047117;28;20045;-85
2021/06/05 11:46:48;;;;;;;1.45;0.80;;;;;;;23.46;56.36;99378.19;5046192;28;20491;-85
2021/06/05 11:49:52;;;;;;;2.55;1.20;;;;;;;23.63;55.29;99391.91;5031942;28;20045;-85
2021/06/05 11:52:39;;;;;;;4.13;1.10;;;;;;;23.43;54.71;99391.78;5062854;28;20091;-85
2021/06/05 11:55:44;;;;;;;2.67;1.02;;;;;;;23.43;55.70;99394.56;5047702;28;20041;-85